sensor_id;sensor_type;location;lat;lon;timestamp;P1;durP1;ratioP1;P2;durP2;ratioP2
80247;SDS011;69560;52.206;21.018;2023-08-20T00:02:20;20.10;;;18.30;;
80247;SDS011;69560;52.206;21.018;2023-08-20T00:04:51;21.20;;;18.30;;
80247;SDS011;69560;52.206;21.018;2023-08-20T00:09:48;20.00;;;18.00;;
80247;SDS011;69560;52.206;21.018;2023-08-20T00:12:14;21.10;;;18.80;;
80247;SDS011;69560;52.206;21.018;2023-08-20T00:14:57;22.90;;;19.00;;
80247;SDS011;69560;52.206;21.018;2023-08-20T00:17:31;19.80;;;17.80;;
80247;SDS011;69560;52.206;21.018;2023-08-20T00:19:58;20.00;;;17.40;;
80247;SDS011;69560;52.206;21.018;2023-08-20T00:22:26;20.30;;;18.40;;
80247;SDS011;69560;52.206;21.018;2023-08-20T00:24:53;21.10;;;18.70;;
80247;SDS011;69560;52.206;21.018;2023-08-20T00:27:20;21.10;;;19.00;;
80247;SDS011;69560;52.206;21.018;2023-08-20T00:29:47;24.80;;;22.10;;
80247;SDS011;69560;52.206;21.018;2023-08-20T00:32:14;25.90;;;22.90;;
80247;SDS011;69560;52.206;21.018;2023-08-20T00:34:41;22.10;;;20.00;;
80247;SDS011;69560;52.206;21.018;2023-08-20T00:37:07;21.50;;;19.30;;
80247;SDS011;69560;52.206;21.018;2023-08-20T00:39:34;19.60;;;17.70;;
80247;SDS011;69560;52.206;21.018;2023-08-20T00:42:00;22.00;;;17.30;;
80247;SDS011;69560;52.206;21.018;2023-08-20T00:44:29;23.20;;;18.50;;
80247;SDS011;69560;52.206;21.018;2023-08-20T00:46:56;19.90;;;18.00;;
80247;SDS011;69560;52.206;21.018;2023-08-20T00:49:23;20.90;;;18.90;;
80247;SDS011;69560;52.206;21.018;2023-08-20T00:51:50;21.90;;;19.80;;
80247;SDS011;69560;52.206;21.018;2023-08-20T00:54:17;21.80;;;19.70;;
80247;SDS011;69560;52.206;21.018;2023-08-20T00:56:43;20.20;;;18.30;;
80247;SDS011;69560;52.206;21.018;2023-08-20T00:59:11;19.10;;;17.30;;
80247;SDS011;69560;52.206;21.018;2023-08-20T01:01:37;20.00;;;18.00;;
80247;SDS011;69560;52.206;21.018;2023-08-20T01:04:04;21.00;;;18.90;;
80247;SDS011;69560;52.206;21.018;2023-08-20T01:06:36;22.20;;;20.00;;
80247;SDS011;69560;52.206;21.018;2023-08-20T01:09:17;21.70;;;18.30;;
80247;SDS011;69560;52.206;21.018;2023-08-20T01:11:55;20.90;;;18.90;;
80247;SDS011;69560;52.206;21.018;2023-08-20T01:14:25;20.30;;;18.30;;
80247;SDS011;69560;52.206;21.018;2023-08-20T01:16:52;20.00;;;18.20;;
80247;SDS011;69560;52.206;21.018;2023-08-20T01:19:19;19.80;;;17.80;;
80247;SDS011;69560;52.206;21.018;2023-08-20T01:21:56;21.50;;;19.20;;
80247;SDS011;69560;52.206;21.018;2023-08-20T01:29:53;21.90;;;19.80;;
80247;SDS011;69560;52.206;21.018;2023-08-20T01:32:21;23.30;;;20.80;;
80247;SDS011;69560;52.206;21.018;2023-08-20T01:34:49;23.60;;;20.80;;
80247;SDS011;69560;52.206;21.018;2023-08-20T01:37:15;20.40;;;18.40;;
80247;SDS011;69560;52.206;21.018;2023-08-20T01:39:43;19.70;;;17.80;;
80247;SDS011;69560;52.206;21.018;2023-08-20T01:42:09;20.50;;;18.40;;
80247;SDS011;69560;52.206;21.018;2023-08-20T01:44:36;22.80;;;20.50;;
80247;SDS011;69560;52.206;21.018;2023-08-20T01:47:02;25.20;;;22.60;;
80247;SDS011;69560;52.206;21.018;2023-08-20T01:49:29;25.30;;;22.50;;
80247;SDS011;69560;52.206;21.018;2023-08-20T01:51:55;31.90;;;27.70;;
80247;SDS011;69560;52.206;21.018;2023-08-20T01:54:22;25.20;;;22.20;;
80247;SDS011;69560;52.206;21.018;2023-08-20T01:56:48;21.30;;;19.10;;
80247;SDS011;69560;52.206;21.018;2023-08-20T01:59:15;21.30;;;18.20;;
80247;SDS011;69560;52.206;21.018;2023-08-20T02:01:41;20.30;;;18.20;;
80247;SDS011;69560;52.206;21.018;2023-08-20T02:04:08;21.70;;;19.60;;
80247;SDS011;69560;52.206;21.018;2023-08-20T02:06:34;29.20;;;25.20;;
80247;SDS011;69560;52.206;21.018;2023-08-20T02:09:01;29.90;;;24.80;;
80247;SDS011;69560;52.206;21.018;2023-08-20T02:11:27;28.20;;;25.30;;
80247;SDS011;69560;52.206;21.018;2023-08-20T02:13:53;31.20;;;27.80;;
80247;SDS011;69560;52.206;21.018;2023-08-20T02:16:20;25.50;;;22.80;;
80247;SDS011;69560;52.206;21.018;2023-08-20T02:18:46;22.50;;;20.10;;
80247;SDS011;69560;52.206;21.018;2023-08-20T02:21:13;22.00;;;19.90;;
80247;SDS011;69560;52.206;21.018;2023-08-20T02:23:39;22.40;;;20.00;;
80247;SDS011;69560;52.206;21.018;2023-08-20T02:26:07;23.90;;;21.50;;
80247;SDS011;69560;52.206;21.018;2023-08-20T02:28:33;28.10;;;24.50;;
80247;SDS011;69560;52.206;21.018;2023-08-20T02:31:03;31.00;;;27.80;;
80247;SDS011;69560;52.206;21.018;2023-08-20T02:33:30;27.40;;;24.50;;
80247;SDS011;69560;52.206;21.018;2023-08-20T02:36:01;26.30;;;23.30;;
80247;SDS011;69560;52.206;21.018;2023-08-20T02:38:29;25.50;;;22.80;;
80247;SDS011;69560;52.206;21.018;2023-08-20T02:40:56;23.10;;;20.80;;
80247;SDS011;69560;52.206;21.018;2023-08-20T02:43:22;22.80;;;20.00;;
80247;SDS011;69560;52.206;21.018;2023-08-20T02:45:49;23.10;;;20.90;;
80247;SDS011;69560;52.206;21.018;2023-08-20T02:48:17;23.90;;;21.60;;
80247;SDS011;69560;52.206;21.018;2023-08-20T02:50:43;26.00;;;22.20;;
80247;SDS011;69560;52.206;21.018;2023-08-20T02:53:10;22.40;;;20.20;;
80247;SDS011;69560;52.206;21.018;2023-08-20T02:55:36;24.90;;;19.10;;
80247;SDS011;69560;52.206;21.018;2023-08-20T02:58:03;20.60;;;18.70;;
80247;SDS011;69560;52.206;21.018;2023-08-20T03:00:30;20.20;;;18.10;;
80247;SDS011;69560;52.206;21.018;2023-08-20T03:02:56;20.00;;;18.00;;
80247;SDS011;69560;52.206;21.018;2023-08-20T03:05:24;21.10;;;19.00;;
80247;SDS011;69560;52.206;21.018;2023-08-20T03:07:51;24.30;;;19.10;;
80247;SDS011;69560;52.206;21.018;2023-08-20T03:10:17;21.00;;;18.80;;
80247;SDS011;69560;52.206;21.018;2023-08-20T03:12:44;21.90;;;19.60;;
80247;SDS011;69560;52.206;21.018;2023-08-20T03:15:10;22.10;;;19.80;;
80247;SDS011;69560;52.206;21.018;2023-08-20T03:17:37;21.80;;;18.40;;
80247;SDS011;69560;52.206;21.018;2023-08-20T03:20:04;22.10;;;19.70;;
80247;SDS011;69560;52.206;21.018;2023-08-20T03:22:32;22.60;;;20.10;;
80247;SDS011;69560;52.206;21.018;2023-08-20T03:24:59;21.80;;;19.50;;
80247;SDS011;69560;52.206;21.018;2023-08-20T03:27:26;24.60;;;21.10;;
80247;SDS011;69560;52.206;21.018;2023-08-20T03:29:53;22.20;;;19.70;;
80247;SDS011;69560;52.206;21.018;2023-08-20T03:32:19;21.60;;;19.50;;
80247;SDS011;69560;52.206;21.018;2023-08-20T03:34:46;22.50;;;19.40;;
80247;SDS011;69560;52.206;21.018;2023-08-20T03:37:12;21.20;;;19.00;;
80247;SDS011;69560;52.206;21.018;2023-08-20T03:39:39;22.80;;;20.10;;
80247;SDS011;69560;52.206;21.018;2023-08-20T03:42:05;22.10;;;19.80;;
80247;SDS011;69560;52.206;21.018;2023-08-20T03:44:32;21.70;;;19.80;;
80247;SDS011;69560;52.206;21.018;2023-08-20T03:46:59;25.20;;;21.20;;
80247;SDS011;69560;52.206;21.018;2023-08-20T03:49:25;26.90;;;23.70;;
80247;SDS011;69560;52.206;21.018;2023-08-20T03:51:52;22.60;;;20.30;;
80247;SDS011;69560;52.206;21.018;2023-08-20T03:54:18;22.90;;;20.60;;
80247;SDS011;69560;52.206;21.018;2023-08-20T03:56:45;22.20;;;20.00;;
80247;SDS011;69560;52.206;21.018;2023-08-20T03:59:11;25.10;;;21.60;;
80247;SDS011;69560;52.206;21.018;2023-08-20T04:01:38;24.80;;;21.30;;
80247;SDS011;69560;52.206;21.018;2023-08-20T04:04:05;23.90;;;21.20;;
80247;SDS011;69560;52.206;21.018;2023-08-20T04:06:31;22.40;;;20.20;;
80247;SDS011;69560;52.206;21.018;2023-08-20T04:08:58;24.20;;;21.70;;
80247;SDS011;69560;52.206;21.018;2023-08-20T04:11:24;23.40;;;21.00;;
80247;SDS011;69560;52.206;21.018;2023-08-20T04:13:51;26.70;;;23.50;;
80247;SDS011;69560;52.206;21.018;2023-08-20T04:16:17;23.30;;;20.80;;
80247;SDS011;69560;52.206;21.018;2023-08-20T04:18:44;23.20;;;21.00;;
80247;SDS011;69560;52.206;21.018;2023-08-20T04:21:10;23.80;;;21.30;;
80247;SDS011;69560;52.206;21.018;2023-08-20T04:23:37;24.50;;;21.90;;
80247;SDS011;69560;52.206;21.018;2023-08-20T04:26:03;23.30;;;20.90;;
80247;SDS011;69560;52.206;21.018;2023-08-20T04:28:30;22.40;;;20.10;;
80247;SDS011;69560;52.206;21.018;2023-08-20T04:30:56;22.60;;;20.40;;
80247;SDS011;69560;52.206;21.018;2023-08-20T04:33:24;21.80;;;19.60;;
80247;SDS011;69560;52.206;21.018;2023-08-20T04:35:50;22.90;;;20.60;;
80247;SDS011;69560;52.206;21.018;2023-08-20T04:38:17;23.60;;;21.20;;
80247;SDS011;69560;52.206;21.018;2023-08-20T04:40:49;23.40;;;21.00;;
80247;SDS011;69560;52.206;21.018;2023-08-20T04:43:16;22.60;;;20.40;;
80247;SDS011;69560;52.206;21.018;2023-08-20T04:45:43;22.20;;;20.10;;
80247;SDS011;69560;52.206;21.018;2023-08-20T04:48:09;22.20;;;20.00;;
80247;SDS011;69560;52.206;21.018;2023-08-20T04:50:36;22.80;;;20.40;;
80247;SDS011;69560;52.206;21.018;2023-08-20T04:53:02;22.10;;;20.00;;
80247;SDS011;69560;52.206;21.018;2023-08-20T04:55:29;25.80;;;21.30;;
80247;SDS011;69560;52.206;21.018;2023-08-20T04:57:55;23.90;;;21.30;;
80247;SDS011;69560;52.206;21.018;2023-08-20T05:00:22;24.10;;;21.70;;
80247;SDS011;69560;52.206;21.018;2023-08-20T05:02:49;23.30;;;21.00;;
80247;SDS011;69560;52.206;21.018;2023-08-20T05:05:15;24.30;;;22.00;;
80247;SDS011;69560;52.206;21.018;2023-08-20T05:07:42;22.00;;;20.00;;
80247;SDS011;69560;52.206;21.018;2023-08-20T05:10:10;22.60;;;20.40;;
80247;SDS011;69560;52.206;21.018;2023-08-20T05:12:36;22.00;;;19.90;;
80247;SDS011;69560;52.206;21.018;2023-08-20T05:15:03;22.50;;;20.40;;
80247;SDS011;69560;52.206;21.018;2023-08-20T05:17:30;23.10;;;20.80;;
80247;SDS011;69560;52.206;21.018;2023-08-20T05:19:57;23.20;;;21.10;;
80247;SDS011;69560;52.206;21.018;2023-08-20T05:22:23;22.80;;;20.40;;
80247;SDS011;69560;52.206;21.018;2023-08-20T05:24:50;22.60;;;20.30;;
80247;SDS011;69560;52.206;21.018;2023-08-20T05:27:16;23.10;;;19.60;;
80247;SDS011;69560;52.206;21.018;2023-08-20T05:29:43;22.10;;;20.00;;
80247;SDS011;69560;52.206;21.018;2023-08-20T05:32:10;21.90;;;19.70;;
80247;SDS011;69560;52.206;21.018;2023-08-20T05:34:37;20.60;;;18.60;;
80247;SDS011;69560;52.206;21.018;2023-08-20T05:37:03;21.80;;;19.60;;
80247;SDS011;69560;52.206;21.018;2023-08-20T05:39:30;22.90;;;20.50;;
80247;SDS011;69560;52.206;21.018;2023-08-20T05:42:02;22.80;;;20.50;;
80247;SDS011;69560;52.206;21.018;2023-08-20T05:44:29;25.00;;;22.60;;
80247;SDS011;69560;52.206;21.018;2023-08-20T05:46:56;21.30;;;19.30;;
80247;SDS011;69560;52.206;21.018;2023-08-20T05:49:22;21.80;;;19.80;;
80247;SDS011;69560;52.206;21.018;2023-08-20T05:51:49;21.80;;;19.70;;
80247;SDS011;69560;52.206;21.018;2023-08-20T05:54:15;20.30;;;18.30;;
80247;SDS011;69560;52.206;21.018;2023-08-20T05:56:42;22.90;;;20.50;;
80247;SDS011;69560;52.206;21.018;2023-08-20T05:59:08;21.20;;;19.00;;
80247;SDS011;69560;52.206;21.018;2023-08-20T06:01:36;27.20;;;21.10;;
80247;SDS011;69560;52.206;21.018;2023-08-20T06:04:03;25.10;;;22.40;;
80247;SDS011;69560;52.206;21.018;2023-08-20T06:06:29;24.10;;;21.80;;
80247;SDS011;69560;52.206;21.018;2023-08-20T06:08:56;25.50;;;22.70;;
80247;SDS011;69560;52.206;21.018;2023-08-20T06:11:22;24.10;;;21.60;;
80247;SDS011;69560;52.206;21.018;2023-08-20T06:13:49;23.60;;;21.20;;
80247;SDS011;69560;52.206;21.018;2023-08-20T06:16:16;22.80;;;20.50;;
80247;SDS011;69560;52.206;21.018;2023-08-20T06:18:42;23.50;;;21.10;;
80247;SDS011;69560;52.206;21.018;2023-08-20T06:21:09;23.40;;;21.30;;
80247;SDS011;69560;52.206;21.018;2023-08-20T06:23:35;25.60;;;22.10;;
80247;SDS011;69560;52.206;21.018;2023-08-20T06:26:02;22.60;;;20.40;;
80247;SDS011;69560;52.206;21.018;2023-08-20T06:28:28;25.50;;;22.80;;
80247;SDS011;69560;52.206;21.018;2023-08-20T06:30:55;22.10;;;20.10;;
80247;SDS011;69560;52.206;21.018;2023-08-20T06:33:21;22.10;;;19.90;;
80247;SDS011;69560;52.206;21.018;2023-08-20T06:35:48;21.70;;;19.60;;
80247;SDS011;69560;52.206;21.018;2023-08-20T06:38:14;21.40;;;19.50;;
80247;SDS011;69560;52.206;21.018;2023-08-20T06:40:41;21.70;;;19.70;;
80247;SDS011;69560;52.206;21.018;2023-08-20T06:43:07;23.20;;;20.30;;
80247;SDS011;69560;52.206;21.018;2023-08-20T06:45:34;20.80;;;17.90;;
80247;SDS011;69560;52.206;21.018;2023-08-20T06:48:00;20.40;;;18.60;;
80247;SDS011;69560;52.206;21.018;2023-08-20T06:50:27;20.10;;;18.00;;
80247;SDS011;69560;52.206;21.018;2023-08-20T06:52:53;18.60;;;17.00;;
80247;SDS011;69560;52.206;21.018;2023-08-20T06:55:20;17.50;;;16.00;;
80247;SDS011;69560;52.206;21.018;2023-08-20T06:57:46;19.40;;;17.60;;
80247;SDS011;69560;52.206;21.018;2023-08-20T07:00:13;18.70;;;16.80;;
80247;SDS011;69560;52.206;21.018;2023-08-20T07:02:39;16.90;;;15.20;;
80247;SDS011;69560;52.206;21.018;2023-08-20T07:05:06;16.70;;;15.10;;
80247;SDS011;69560;52.206;21.018;2023-08-20T07:07:35;19.30;;;17.40;;
80247;SDS011;69560;52.206;21.018;2023-08-20T07:10:02;18.20;;;16.60;;
80247;SDS011;69560;52.206;21.018;2023-08-20T07:12:29;17.60;;;16.00;;
80247;SDS011;69560;52.206;21.018;2023-08-20T07:14:56;16.40;;;14.90;;
80247;SDS011;69560;52.206;21.018;2023-08-20T07:17:22;16.70;;;15.10;;
80247;SDS011;69560;52.206;21.018;2023-08-20T07:19:49;17.30;;;15.80;;
80247;SDS011;69560;52.206;21.018;2023-08-20T07:22:15;18.20;;;16.40;;
80247;SDS011;69560;52.206;21.018;2023-08-20T07:24:42;18.80;;;17.10;;
80247;SDS011;69560;52.206;21.018;2023-08-20T07:27:08;17.80;;;16.10;;
80247;SDS011;69560;52.206;21.018;2023-08-20T07:32:05;17.40;;;15.70;;
80247;SDS011;69560;52.206;21.018;2023-08-20T07:34:31;16.80;;;15.40;;
80247;SDS011;69560;52.206;21.018;2023-08-20T07:37:00;18.60;;;16.80;;
80247;SDS011;69560;52.206;21.018;2023-08-20T07:39:27;18.00;;;16.30;;
80247;SDS011;69560;52.206;21.018;2023-08-20T07:41:54;18.00;;;16.20;;
80247;SDS011;69560;52.206;21.018;2023-08-20T07:44:20;17.40;;;15.80;;
80247;SDS011;69560;52.206;21.018;2023-08-20T07:46:47;19.90;;;17.80;;
80247;SDS011;69560;52.206;21.018;2023-08-20T07:49:13;19.70;;;17.80;;
80247;SDS011;69560;52.206;21.018;2023-08-20T07:51:40;21.60;;;17.10;;
80247;SDS011;69560;52.206;21.018;2023-08-20T07:54:06;17.70;;;16.00;;
80247;SDS011;69560;52.206;21.018;2023-08-20T07:56:33;17.40;;;15.90;;
80247;SDS011;69560;52.206;21.018;2023-08-20T07:58:59;18.70;;;16.80;;
80247;SDS011;69560;52.206;21.018;2023-08-20T08:01:26;17.70;;;15.80;;
80247;SDS011;69560;52.206;21.018;2023-08-20T08:03:53;19.00;;;16.50;;
80247;SDS011;69560;52.206;21.018;2023-08-20T08:06:19;17.60;;;16.00;;
80247;SDS011;69560;52.206;21.018;2023-08-20T08:08:47;16.50;;;15.10;;
80247;SDS011;69560;52.206;21.018;2023-08-20T08:11:14;16.80;;;15.20;;
80247;SDS011;69560;52.206;21.018;2023-08-20T08:13:41;17.60;;;15.70;;
80247;SDS011;69560;52.206;21.018;2023-08-20T08:16:07;17.30;;;15.30;;
80247;SDS011;69560;52.206;21.018;2023-08-20T08:18:34;17.80;;;15.60;;
80247;SDS011;69560;52.206;21.018;2023-08-20T08:21:00;19.10;;;15.40;;
80247;SDS011;69560;52.206;21.018;2023-08-20T08:23:27;16.80;;;15.20;;
80247;SDS011;69560;52.206;21.018;2023-08-20T08:25:54;16.20;;;14.70;;
80247;SDS011;69560;52.206;21.018;2023-08-20T08:28:20;15.80;;;14.40;;
80247;SDS011;69560;52.206;21.018;2023-08-20T08:30:47;14.50;;;13.30;;
80247;SDS011;69560;52.206;21.018;2023-08-20T08:33:13;14.00;;;12.60;;
80247;SDS011;69560;52.206;21.018;2023-08-20T08:35:39;14.50;;;13.20;;
80247;SDS011;69560;52.206;21.018;2023-08-20T08:38:06;15.00;;;13.20;;
80247;SDS011;69560;52.206;21.018;2023-08-20T08:40:33;14.80;;;13.50;;
80247;SDS011;69560;52.206;21.018;2023-08-20T08:43:00;15.00;;;13.50;;
80247;SDS011;69560;52.206;21.018;2023-08-20T08:45:28;14.10;;;12.80;;
80247;SDS011;69560;52.206;21.018;2023-08-20T08:47:55;14.10;;;12.90;;
80247;SDS011;69560;52.206;21.018;2023-08-20T08:50:22;14.40;;;13.00;;
80247;SDS011;69560;52.206;21.018;2023-08-20T08:52:50;13.70;;;12.60;;
80247;SDS011;69560;52.206;21.018;2023-08-20T08:55:20;13.70;;;12.40;;
80247;SDS011;69560;52.206;21.018;2023-08-20T08:57:47;14.20;;;12.80;;
80247;SDS011;69560;52.206;21.018;2023-08-20T09:00:14;13.30;;;12.20;;
80247;SDS011;69560;52.206;21.018;2023-08-20T09:02:41;12.30;;;11.30;;
80247;SDS011;69560;52.206;21.018;2023-08-20T09:05:07;13.20;;;11.90;;
80247;SDS011;69560;52.206;21.018;2023-08-20T09:07:34;12.50;;;11.50;;
80247;SDS011;69560;52.206;21.018;2023-08-20T09:10:01;12.30;;;11.30;;
80247;SDS011;69560;52.206;21.018;2023-08-20T09:12:27;13.40;;;12.00;;
80247;SDS011;69560;52.206;21.018;2023-08-20T09:14:54;12.60;;;11.40;;
80247;SDS011;69560;52.206;21.018;2023-08-20T09:17:24;11.90;;;10.80;;
80247;SDS011;69560;52.206;21.018;2023-08-20T09:19:53;14.20;;;11.60;;
80247;SDS011;69560;52.206;21.018;2023-08-20T09:22:20;13.40;;;11.90;;
80247;SDS011;69560;52.206;21.018;2023-08-20T09:24:52;12.90;;;11.70;;
80247;SDS011;69560;52.206;21.018;2023-08-20T09:27:21;12.10;;;11.00;;
80247;SDS011;69560;52.206;21.018;2023-08-20T09:29:54;12.20;;;11.00;;
80247;SDS011;69560;52.206;21.018;2023-08-20T09:32:26;12.80;;;11.70;;
80247;SDS011;69560;52.206;21.018;2023-08-20T09:34:54;12.30;;;11.20;;
80247;SDS011;69560;52.206;21.018;2023-08-20T09:37:23;12.00;;;10.80;;
80247;SDS011;69560;52.206;21.018;2023-08-20T09:39:51;12.70;;;11.40;;
80247;SDS011;69560;52.206;21.018;2023-08-20T09:42:18;12.50;;;10.60;;
80247;SDS011;69560;52.206;21.018;2023-08-20T09:44:45;10.60;;;9.70;;
80247;SDS011;69560;52.206;21.018;2023-08-20T09:47:14;11.40;;;9.90;;
80247;SDS011;69560;52.206;21.018;2023-08-20T09:52:11;10.80;;;9.80;;
80247;SDS011;69560;52.206;21.018;2023-08-20T09:57:12;13.50;;;10.20;;
80247;SDS011;69560;52.206;21.018;2023-08-20T09:59:49;10.90;;;9.80;;
80247;SDS011;69560;52.206;21.018;2023-08-20T10:02:17;9.70;;;9.00;;
80247;SDS011;69560;52.206;21.018;2023-08-20T10:04:43;10.60;;;9.60;;
80247;SDS011;69560;52.206;21.018;2023-08-20T10:07:11;10.00;;;9.10;;
80247;SDS011;69560;52.206;21.018;2023-08-20T10:09:38;10.20;;;9.20;;
80247;SDS011;69560;52.206;21.018;2023-08-20T10:12:06;9.30;;;8.50;;
80247;SDS011;69560;52.206;21.018;2023-08-20T10:14:33;12.30;;;9.10;;
80247;SDS011;69560;52.206;21.018;2023-08-20T10:17:05;9.50;;;8.70;;
80247;SDS011;69560;52.206;21.018;2023-08-20T10:19:33;12.00;;;9.50;;
80247;SDS011;69560;52.206;21.018;2023-08-20T10:21:59;9.60;;;8.80;;
80247;SDS011;69560;52.206;21.018;2023-08-20T10:24:28;10.20;;;9.30;;
80247;SDS011;69560;52.206;21.018;2023-08-20T10:27:10;12.10;;;8.90;;
80247;SDS011;69560;52.206;21.018;2023-08-20T10:29:38;9.70;;;8.90;;
80247;SDS011;69560;52.206;21.018;2023-08-20T10:32:08;10.40;;;9.00;;
80247;SDS011;69560;52.206;21.018;2023-08-20T10:37:12;9.00;;;8.30;;
80247;SDS011;69560;52.206;21.018;2023-08-20T10:39:40;9.30;;;8.50;;
80247;SDS011;69560;52.206;21.018;2023-08-20T10:44:55;9.80;;;9.00;;
80247;SDS011;69560;52.206;21.018;2023-08-20T10:47:22;9.40;;;8.60;;
80247;SDS011;69560;52.206;21.018;2023-08-20T10:49:52;9.50;;;8.60;;
80247;SDS011;69560;52.206;21.018;2023-08-20T10:52:20;9.40;;;8.60;;
80247;SDS011;69560;52.206;21.018;2023-08-20T10:54:52;9.00;;;8.30;;
80247;SDS011;69560;52.206;21.018;2023-08-20T10:57:19;9.20;;;8.50;;
80247;SDS011;69560;52.206;21.018;2023-08-20T10:59:57;10.40;;;9.50;;
80247;SDS011;69560;52.206;21.018;2023-08-20T11:02:24;10.40;;;9.30;;
80247;SDS011;69560;52.206;21.018;2023-08-20T11:04:52;9.40;;;8.60;;
80247;SDS011;69560;52.206;21.018;2023-08-20T11:07:20;9.20;;;8.40;;
80247;SDS011;69560;52.206;21.018;2023-08-20T11:09:47;9.10;;;8.20;;
80247;SDS011;69560;52.206;21.018;2023-08-20T11:12:15;9.20;;;8.40;;
80247;SDS011;69560;52.206;21.018;2023-08-20T11:14:42;9.80;;;8.90;;
80247;SDS011;69560;52.206;21.018;2023-08-20T11:17:08;8.90;;;8.00;;
80247;SDS011;69560;52.206;21.018;2023-08-20T11:19:35;10.00;;;8.30;;
80247;SDS011;69560;52.206;21.018;2023-08-20T11:22:02;9.30;;;8.50;;
80247;SDS011;69560;52.206;21.018;2023-08-20T11:24:29;9.70;;;8.80;;
80247;SDS011;69560;52.206;21.018;2023-08-20T11:26:55;9.60;;;8.80;;
80247;SDS011;69560;52.206;21.018;2023-08-20T11:29:22;10.00;;;9.00;;
80247;SDS011;69560;52.206;21.018;2023-08-20T11:31:49;10.10;;;9.10;;
80247;SDS011;69560;52.206;21.018;2023-08-20T11:34:17;10.50;;;9.60;;
80247;SDS011;69560;52.206;21.018;2023-08-20T11:36:44;10.60;;;9.50;;
80247;SDS011;69560;52.206;21.018;2023-08-20T11:39:11;9.80;;;8.90;;
80247;SDS011;69560;52.206;21.018;2023-08-20T11:41:38;10.20;;;9.20;;
80247;SDS011;69560;52.206;21.018;2023-08-20T11:44:08;10.30;;;9.40;;
80247;SDS011;69560;52.206;21.018;2023-08-20T11:46:41;10.30;;;8.80;;
80247;SDS011;69560;52.206;21.018;2023-08-20T11:49:10;10.80;;;9.80;;
80247;SDS011;69560;52.206;21.018;2023-08-20T11:51:41;11.10;;;9.00;;
80247;SDS011;69560;52.206;21.018;2023-08-20T11:54:13;10.00;;;8.40;;
80247;SDS011;69560;52.206;21.018;2023-08-20T11:59:11;9.60;;;8.70;;
80247;SDS011;69560;52.206;21.018;2023-08-20T12:01:39;9.30;;;8.60;;
80247;SDS011;69560;52.206;21.018;2023-08-20T12:04:07;9.80;;;9.00;;
80247;SDS011;69560;52.206;21.018;2023-08-20T12:06:35;9.90;;;8.80;;
80247;SDS011;69560;52.206;21.018;2023-08-20T12:09:17;10.30;;;9.30;;
80247;SDS011;69560;52.206;21.018;2023-08-20T12:11:50;10.70;;;9.70;;
80247;SDS011;69560;52.206;21.018;2023-08-20T12:14:18;10.10;;;9.30;;
80247;SDS011;69560;52.206;21.018;2023-08-20T12:16:46;10.10;;;9.10;;
80247;SDS011;69560;52.206;21.018;2023-08-20T12:19:12;11.10;;;9.40;;
80247;SDS011;69560;52.206;21.018;2023-08-20T12:21:40;10.80;;;10.00;;
80247;SDS011;69560;52.206;21.018;2023-08-20T12:24:08;10.30;;;9.40;;
80247;SDS011;69560;52.206;21.018;2023-08-20T12:26:36;10.80;;;9.90;;
80247;SDS011;69560;52.206;21.018;2023-08-20T12:29:03;10.30;;;9.40;;
80247;SDS011;69560;52.206;21.018;2023-08-20T12:31:30;10.70;;;9.70;;
80247;SDS011;69560;52.206;21.018;2023-08-20T12:34:01;10.10;;;9.30;;
80247;SDS011;69560;52.206;21.018;2023-08-20T12:36:27;10.20;;;9.30;;
80247;SDS011;69560;52.206;21.018;2023-08-20T12:38:54;10.40;;;9.60;;
80247;SDS011;69560;52.206;21.018;2023-08-20T12:41:22;11.00;;;10.10;;
80247;SDS011;69560;52.206;21.018;2023-08-20T12:43:49;11.10;;;10.00;;
80247;SDS011;69560;52.206;21.018;2023-08-20T12:46:16;10.30;;;9.40;;
80247;SDS011;69560;52.206;21.018;2023-08-20T12:48:43;11.00;;;10.10;;
80247;SDS011;69560;52.206;21.018;2023-08-20T12:51:10;10.60;;;9.80;;
80247;SDS011;69560;52.206;21.018;2023-08-20T12:53:40;11.80;;;9.70;;
80247;SDS011;69560;52.206;21.018;2023-08-20T12:56:06;10.50;;;9.70;;
80247;SDS011;69560;52.206;21.018;2023-08-20T12:58:33;10.30;;;9.60;;
80247;SDS011;69560;52.206;21.018;2023-08-20T13:00:59;10.60;;;9.70;;
80247;SDS011;69560;52.206;21.018;2023-08-20T13:03:26;10.50;;;9.50;;
80247;SDS011;69560;52.206;21.018;2023-08-20T13:05:54;10.20;;;9.40;;
80247;SDS011;69560;52.206;21.018;2023-08-20T13:08:23;10.60;;;9.80;;
80247;SDS011;69560;52.206;21.018;2023-08-20T13:10:52;10.50;;;9.60;;
80247;SDS011;69560;52.206;21.018;2023-08-20T13:13:21;11.40;;;10.30;;
80247;SDS011;69560;52.206;21.018;2023-08-20T13:15:50;11.30;;;9.80;;
80247;SDS011;69560;52.206;21.018;2023-08-20T13:18:18;11.00;;;10.10;;
80247;SDS011;69560;52.206;21.018;2023-08-20T13:20:45;11.30;;;10.30;;
80247;SDS011;69560;52.206;21.018;2023-08-20T13:23:12;11.00;;;10.00;;
80247;SDS011;69560;52.206;21.018;2023-08-20T13:25:39;10.30;;;9.40;;
80247;SDS011;69560;52.206;21.018;2023-08-20T13:28:05;10.80;;;9.90;;
80247;SDS011;69560;52.206;21.018;2023-08-20T13:30:32;10.70;;;9.80;;
80247;SDS011;69560;52.206;21.018;2023-08-20T13:32:59;10.70;;;9.80;;
80247;SDS011;69560;52.206;21.018;2023-08-20T13:35:27;11.00;;;10.10;;
80247;SDS011;69560;52.206;21.018;2023-08-20T13:37:53;10.10;;;9.30;;
80247;SDS011;69560;52.206;21.018;2023-08-20T13:40:20;10.70;;;9.70;;
80247;SDS011;69560;52.206;21.018;2023-08-20T13:42:47;10.10;;;9.30;;
80247;SDS011;69560;52.206;21.018;2023-08-20T13:45:14;10.00;;;9.10;;
80247;SDS011;69560;52.206;21.018;2023-08-20T13:47:40;10.90;;;9.90;;
80247;SDS011;69560;52.206;21.018;2023-08-20T13:50:07;10.20;;;9.30;;
80247;SDS011;69560;52.206;21.018;2023-08-20T13:52:34;10.90;;;9.80;;
80247;SDS011;69560;52.206;21.018;2023-08-20T13:55:00;11.00;;;10.00;;
80247;SDS011;69560;52.206;21.018;2023-08-20T13:57:27;10.70;;;9.70;;
80247;SDS011;69560;52.206;21.018;2023-08-20T13:59:53;10.60;;;9.60;;
80247;SDS011;69560;52.206;21.018;2023-08-20T14:02:21;10.00;;;9.20;;
80247;SDS011;69560;52.206;21.018;2023-08-20T14:04:48;11.90;;;9.70;;
80247;SDS011;69560;52.206;21.018;2023-08-20T14:07:14;10.60;;;9.70;;
80247;SDS011;69560;52.206;21.018;2023-08-20T14:09:41;10.90;;;10.00;;
80247;SDS011;69560;52.206;21.018;2023-08-20T14:12:07;10.40;;;9.40;;
80247;SDS011;69560;52.206;21.018;2023-08-20T14:14:34;11.30;;;10.30;;
80247;SDS011;69560;52.206;21.018;2023-08-20T14:17:00;10.90;;;9.90;;
80247;SDS011;69560;52.206;21.018;2023-08-20T14:19:27;11.20;;;10.20;;
80247;SDS011;69560;52.206;21.018;2023-08-20T14:21:53;11.50;;;10.50;;
80247;SDS011;69560;52.206;21.018;2023-08-20T14:24:20;11.60;;;10.60;;
80247;SDS011;69560;52.206;21.018;2023-08-20T14:26:47;11.00;;;10.00;;
80247;SDS011;69560;52.206;21.018;2023-08-20T14:29:13;11.90;;;10.80;;
80247;SDS011;69560;52.206;21.018;2023-08-20T14:31:40;11.70;;;10.70;;
80247;SDS011;69560;52.206;21.018;2023-08-20T14:34:06;12.20;;;11.10;;
80247;SDS011;69560;52.206;21.018;2023-08-20T14:36:32;11.40;;;10.50;;
80247;SDS011;69560;52.206;21.018;2023-08-20T14:38:59;10.70;;;9.80;;